METAR Data
IDs: Format: Raw Decoded Include TAF

Data at: 1945 UTC 18 Jun 2019

KAEG 181847Z 23010G15KT 10SM SCT150 28/02 A3014 RMK TCU NE SW

KAEG 181739Z 1818/1918 24009KT P6SM FEW100
  FM182000 25012G22KT P6SM SCT100
  FM182200 26017G27KT P6SM VCSH BKN100
  FM190100 28011KT P6SM SCT120
  FM191000 26006KT P6SM FEW120
  FM191700 28014G24KT P6SM FEW120